Time;durP1;ratioP1;P1;durP2;ratioP2;P2;SDS_P1;SDS_P2;PMS_P1;PMS_P2;Temp;Humidity;BMP_temperature;BMP_pressure;BME280_temperature;BME280_humidity;BME280_pressure;Samples;Min_cycle;Max_cycle;Signal;HPM_P1;HPM_P2
2021/09/15 00:01:31;;;;;;;14.27;12.73;;;14.30;99.90;14.00;96912.00;;;;5066084;28;20702;-69
2021/09/15 00:04:19;;;;;;;13.30;11.97;;;14.20;99.90;14.10;96908.00;;;;5061115;28;20215;-70
2021/09/15 00:07:09;;;;;;;12.93;11.73;;;14.20;99.90;13.90;96907.00;;;;5067777;28;20230;-71
2021/09/15 00:09:57;;;;;;;16.40;13.57;;;14.20;99.90;13.80;96903.00;;;;5064164;28;20210;-70
2021/09/15 00:12:46;;;;;;;18.47;13.50;;;14.10;99.90;14.20;96905.00;;;;5064507;28;20224;-68
2021/09/15 00:15:35;;;;;;;13.73;12.40;;;14.20;99.90;13.90;96911.00;;;;5062263;28;20758;-69
2021/09/15 00:18:25;;;;;;;15.03;13.63;;;14.20;99.90;14.00;96909.00;;;;5069153;28;20581;-68
2021/09/15 00:21:14;;;;;;;14.23;12.83;;;14.10;99.90;14.00;96905.00;;;;5061012;28;20219;-72
2021/09/15 00:24:04;;;;;;;14.37;12.57;;;14.10;99.90;13.80;96898.00;;;;5069513;28;20758;-69
2021/09/15 00:26:52;;;;;;;13.07;11.70;;;14.00;99.90;14.00;96895.00;;;;5067207;28;20204;-69
2021/09/15 00:29:41;;;;;;;15.13;13.70;;;14.10;99.90;14.10;96892.00;;;;5066963;28;20232;-70
2021/09/15 00:32:30;;;;;;;14.37;12.87;;;14.10;99.90;14.00;96898.00;;;;5070061;28;20219;-71
2021/09/15 00:35:21;;;;;;;13.60;12.20;;;14.10;99.90;13.60;96891.00;;;;5058785;28;20215;-72
2021/09/15 00:38:10;;;;;;;17.23;14.17;;;14.00;99.90;14.10;96902.00;;;;5065459;28;20215;-69
2021/09/15 00:40:59;;;;;;;15.37;13.70;;;14.10;99.90;14.10;96909.00;;;;5066372;28;20203;-71
2021/09/15 00:43:59;;;;;;;15.03;13.53;;;14.10;99.90;14.10;96895.00;;;;5064580;28;20813;-69
2021/09/15 00:46:48;;;;;;;15.77;13.53;;;14.10;99.90;14.10;96891.00;;;;5062117;28;20723;-70
2021/09/15 00:49:37;;;;;;;14.93;13.53;;;14.20;99.90;14.00;96875.00;;;;5061854;28;20250;-72
2021/09/15 00:52:28;;;;;;;14.57;12.70;;;14.10;99.90;14.30;96891.00;;;;5065785;28;20230;-71
2021/09/15 00:55:17;;;;;;;14.03;12.63;;;14.50;99.90;14.50;96884.00;;;;5064167;28;20195;-72
2021/09/15 00:58:06;;;;;;;17.67;12.50;;;14.40;99.90;13.90;96882.00;;;;5059942;28;20722;-70
2021/09/15 01:00:55;;;;;;;14.13;12.73;;;14.30;99.90;13.50;96879.00;;;;5063339;28;20211;-71
2021/09/15 01:03:45;;;;;;;14.53;13.07;;;14.10;99.90;13.50;96878.00;;;;5059425;28;20342;-71
2021/09/15 01:06:35;;;;;;;13.47;11.97;;;14.00;99.90;13.80;96885.00;;;;5060432;28;20199;-70
2021/09/15 01:09:26;;;;;;;14.30;12.80;;;13.90;99.90;13.40;96879.00;;;;5057465;28;20764;-71
2021/09/15 01:12:15;;;;;;;19.50;14.70;;;13.80;99.90;13.20;96882.00;;;;5066166;28;20219;-70
2021/09/15 01:15:06;;;;;;;14.87;13.20;;;13.80;99.90;13.40;96879.00;;;;5062971;28;20607;-70
2021/09/15 01:17:54;;;;;;;16.70;14.87;;;13.70;99.90;13.90;96898.00;;;;5060497;28;20232;-71
2021/09/15 01:20:45;;;;;;;16.73;13.67;;;13.80;99.90;14.00;96893.00;;;;5063707;28;20578;-71
2021/09/15 01:23:34;;;;;;;14.90;13.43;;;13.90;99.90;14.10;96886.00;;;;5065477;28;21516;-70
2021/09/15 01:26:23;;;;;;;16.73;14.70;;;14.00;99.90;14.30;96887.00;;;;5059308;28;20294;-70
2021/09/15 01:29:17;;;;;;;15.60;13.87;;;14.10;99.90;14.20;96882.00;;;;5064024;28;22139;-72
2021/09/15 01:32:09;;;;;;;14.27;12.83;;;14.20;99.90;13.80;96886.00;;;;5063466;28;20223;-72
2021/09/15 01:34:58;;;;;;;14.37;12.93;;;14.10;99.90;13.80;96873.00;;;;5061475;28;20380;-71
2021/09/15 01:37:48;;;;;;;16.90;14.40;;;14.00;99.90;14.00;96879.00;;;;5061787;28;20212;-70
2021/09/15 01:40:38;;;;;;;14.83;13.40;;;14.10;99.90;14.10;96879.00;;;;5059897;28;20196;-71
2021/09/15 01:43:27;;;;;;;13.83;12.37;;;14.10;99.90;13.70;96866.00;;;;5060069;28;20203;-70
2021/09/15 01:46:16;;;;;;;15.93;13.80;;;14.00;99.90;13.60;96860.00;;;;5061966;28;20203;-71
2021/09/15 01:49:05;;;;;;;13.40;12.10;;;13.90;99.90;13.60;96855.00;;;;5063068;28;20216;-69
2021/09/15 01:51:54;;;;;;;13.47;12.27;;;13.90;99.90;13.40;96849.00;;;;5065709;28;20287;-71
2021/09/15 01:54:45;;;;;;;15.10;13.60;;;13.80;99.90;13.30;96865.00;;;;5062663;28;20211;-69
2021/09/15 01:57:34;;;;;;;13.83;12.33;;;13.70;99.90;13.20;96864.00;;;;5076918;28;20208;-72
2021/09/15 02:00:23;;;;;;;14.23;12.90;;;13.60;99.90;13.40;96858.00;;;;5061538;28;20204;-69
2021/09/15 02:03:12;;;;;;;16.03;14.37;;;13.60;99.90;13.60;96865.00;;;;5063881;28;20235;-72
2021/09/15 02:06:01;;;;;;;15.30;13.70;;;13.70;99.90;13.80;96865.00;;;;5062777;28;20204;-70
2021/09/15 02:08:50;;;;;;;15.53;14.03;;;13.70;99.90;13.90;96858.00;;;;5062118;28;20698;-70
2021/09/15 02:11:41;;;;;;;17.13;15.03;;;13.80;99.90;14.10;96867.00;;;;5061557;28;20223;-70
2021/09/15 02:14:29;;;;;;;15.63;14.03;;;13.90;99.90;14.00;96857.00;;;;5064319;28;20208;-69
2021/09/15 02:17:18;;;;;;;16.53;13.33;;;14.00;99.90;13.60;96857.00;;;;5063467;28;20211;-72
2021/09/15 02:20:10;;;;;;;14.63;13.13;;;14.90;99.90;13.20;96860.00;;;;5066841;28;20586;-72
2021/09/15 02:22:59;;;;;;;14.70;13.20;;;13.80;99.90;13.30;96857.00;;;;5066695;28;20813;-70
2021/09/15 02:25:48;;;;;;;14.20;12.80;;;13.70;99.90;13.40;96852.00;;;;5068076;28;20207;-70
2021/09/15 02:28:39;;;;;;;16.07;14.33;;;13.60;99.90;13.30;96857.00;;;;5066355;28;20222;-71
2021/09/15 02:31:28;;;;;;;18.10;14.00;;;13.60;99.90;13.40;96852.00;;;;5067783;28;20250;-70
2021/09/15 02:34:17;;;;;;;15.07;13.57;;;13.60;99.90;13.60;96857.00;;;;5067378;28;20265;-69
2021/09/15 02:37:06;;;;;;;16.90;14.37;;;13.60;99.90;13.30;96852.00;;;;5067830;28;20219;-71
2021/09/15 02:39:55;;;;;;;15.93;13.57;;;13.60;99.90;13.20;96860.00;;;;5066188;28;20204;-70
2021/09/15 02:42:44;;;;;;;15.17;13.60;;;13.50;99.90;13.30;96844.00;;;;5068355;28;20227;-69
2021/09/15 02:45:34;;;;;;;17.33;15.57;;;13.50;99.90;13.50;96849.00;;;;5066930;28;20212;-69
2021/09/15 02:48:23;;;;;;;17.93;15.80;;;13.50;99.90;13.70;96850.00;;;;5066685;28;20212;-71
2021/09/15 02:51:12;;;;;;;18.20;14.77;;;13.60;99.90;13.80;96849.00;;;;5070806;28;20230;-69
2021/09/15 02:54:01;;;;;;;17.07;14.70;;;13.70;99.90;13.80;96850.00;;;;5066423;28;20204;-69
2021/09/15 02:56:50;;;;;;;16.53;14.37;;;13.70;99.90;13.50;96848.00;;;;5077203;28;20720;-69
2021/09/15 02:59:38;;;;;;;16.30;13.40;;;13.70;99.90;13.40;96844.00;;;;5079524;28;20207;-71
2021/09/15 03:02:29;;;;;;;16.03;13.87;;;13.60;99.90;13.50;96846.00;;;;5067886;28;20223;-71
2021/09/15 03:05:18;;;;;;;16.80;15.13;;;13.60;99.90;13.60;96843.00;;;;5066896;28;20204;-69
2021/09/15 03:08:07;;;;;;;15.40;13.80;;;13.60;99.90;13.50;96838.00;;;;5067801;28;20215;-70
2021/09/15 03:10:55;;;;;;;15.80;14.23;;;13.60;99.90;13.50;96840.00;;;;5066405;28;20230;-69
2021/09/15 03:13:46;;;;;;;16.93;15.13;;;13.60;99.90;13.50;96839.00;;;;5067780;28;20231;-71
2021/09/15 03:16:34;;;;;;;16.97;15.23;;;13.60;99.90;13.30;96843.00;;;;5068443;28;20211;-70
2021/09/15 03:19:25;;;;;;;16.03;14.43;;;13.60;99.90;13.20;96845.00;;;;5065871;28;20215;-69
2021/09/15 03:22:14;;;;;;;16.80;15.10;;;13.50;99.90;13.30;96842.00;;;;5067630;28;20231;-71
2021/09/15 03:25:04;;;;;;;16.30;14.60;;;13.40;99.90;13.50;96843.00;;;;5068348;28;20327;-69
2021/09/15 03:27:52;;;;;;;17.10;15.40;;;13.50;99.90;13.60;96845.00;;;;5067900;28;20693;-69
2021/09/15 03:30:41;;;;;;;17.20;15.50;;;13.50;99.90;13.70;96840.00;;;;5066371;28;20231;-70
2021/09/15 03:33:30;;;;;;;16.50;14.77;;;13.60;99.90;13.80;96833.00;;;;5067991;28;20207;-68
2021/09/15 03:36:21;;;;;;;34.87;15.13;;;13.70;99.90;13.40;96840.00;;;;5066204;28;20204;-70
2021/09/15 03:39:10;;;;;;;17.37;14.37;;;13.70;99.90;13.50;96831.00;;;;5066111;28;20212;-71
2021/09/15 03:41:59;;;;;;;20.03;16.07;;;13.70;99.90;13.70;96828.00;;;;5084651;28;20613;-71
2021/09/15 03:44:48;;;;;;;15.90;14.20;;;13.70;99.90;13.70;96835.00;;;;5069608;28;20208;-69
2021/09/15 03:47:36;;;;;;;20.10;14.50;;;13.80;99.90;13.50;96825.00;;;;5066263;28;20586;-69
2021/09/15 03:50:25;;;;;;;23.37;15.20;;;13.70;99.90;13.60;96826.00;;;;5082203;28;20227;-69
2021/09/15 03:53:16;;;;;;;16.13;14.53;;;13.70;99.90;13.60;96823.00;;;;5066433;28;20203;-69
2021/09/15 03:56:05;;;;;;;18.53;14.30;;;13.70;99.90;13.40;96820.00;;;;5071512;28;20681;-69
2021/09/15 03:58:54;;;;;;;14.57;13.07;;;13.70;99.90;13.40;96823.00;;;;5073302;28;20208;-72
2021/09/15 04:01:43;;;;;;;14.90;13.40;;;13.60;99.90;13.50;96812.00;;;;5066839;28;20239;-68
2021/09/15 04:04:32;;;;;;;17.70;14.43;;;13.60;99.90;13.40;96819.00;;;;5077665;28;20211;-70
2021/09/15 04:07:20;;;;;;;17.27;15.57;;;13.60;99.90;13.40;96811.00;;;;5088596;28;20690;-70
2021/09/15 04:10:11;;;;;;;17.03;15.33;;;13.60;99.90;13.40;96815.00;;;;5064513;28;20208;-69
2021/09/15 04:13:00;;;;;;;17.00;15.20;;;13.60;99.90;13.60;96813.00;;;;5065311;28;20231;-70
2021/09/15 04:15:49;;;;;;;16.27;14.60;;;13.60;99.90;13.60;96812.00;;;;5066216;28;20208;-69
2021/09/15 04:18:38;;;;;;;16.73;15.03;;;14.50;99.90;13.60;96807.00;;;;5064125;28;21020;-72
2021/09/15 04:21:27;;;;;;;16.13;14.53;;;13.70;99.90;13.50;96817.00;;;;5093467;28;20716;-71
2021/09/15 04:33:35;;;;;;;16.77;14.60;;;13.50;99.90;13.20;96809.00;;;;5091612;28;20204;-70
2021/09/15 04:36:24;;;;;;;17.33;14.93;;;13.50;99.90;13.20;96813.00;;;;5063410;28;20215;-69
2021/09/15 04:39:12;;;;;;;18.10;15.17;;;13.50;99.90;13.30;96804.00;;;;5063699;28;20253;-72
2021/09/15 04:42:01;;;;;;;17.13;14.63;;;13.50;99.90;13.40;96806.00;;;;5064578;28;20614;-71
2021/09/15 04:44:51;;;;;;;16.77;15.10;;;13.40;99.90;13.30;96801.00;;;;5064762;28;20593;-72
2021/09/15 04:47:40;;;;;;;16.53;14.80;;;13.40;99.90;13.30;96803.00;;;;5064830;28;20211;-71
2021/09/15 04:50:29;;;;;;;22.37;16.07;;;13.40;99.90;13.50;96812.00;;;;5069246;28;20234;-70
2021/09/15 04:53:18;;;;;;;19.20;17.23;;;13.50;99.90;13.60;96822.00;;;;5078837;28;20215;-70
2021/09/15 04:56:07;;;;;;;19.53;16.50;;;13.60;99.90;13.60;96825.00;;;;5071227;28;20211;-72
2021/09/15 04:58:56;;;;;;;17.47;15.77;;;13.60;99.90;13.50;96825.00;;;;5071909;28;20616;-72
2021/09/15 05:01:46;;;;;;;17.00;15.40;;;13.60;99.90;13.60;96826.00;;;;5065102;28;20227;-70
2021/09/15 05:04:35;;;;;;;16.83;14.93;;;13.60;99.90;13.60;96824.00;;;;5065877;28;20200;-70
2021/09/15 05:07:24;;;;;;;16.57;14.87;;;13.70;99.90;13.50;96825.00;;;;5066998;28;20218;-70
2021/09/15 05:10:13;;;;;;;17.10;15.27;;;13.70;99.90;13.30;96818.00;;;;5065251;28;20223;-70
2021/09/15 05:13:02;;;;;;;17.63;15.77;;;13.60;99.90;13.40;96818.00;;;;5066244;28;20224;-71
2021/09/15 05:15:51;;;;;;;17.93;14.80;;;13.60;99.90;13.40;96821.00;;;;5065379;28;20694;-69
2021/09/15 05:18:41;;;;;;;16.83;15.20;;;13.60;99.90;13.60;96826.00;;;;5065187;28;20200;-72
2021/09/15 05:21:30;;;;;;;18.43;16.53;;;13.70;99.90;13.60;96821.00;;;;5064976;28;20224;-71
2021/09/15 05:24:19;;;;;;;17.37;15.60;;;13.70;99.90;13.80;96821.00;;;;5064288;28;20218;-71
2021/09/15 05:27:08;;;;;;;19.57;16.00;;;13.80;99.90;14.00;96820.00;;;;5066219;28;20196;-69
2021/09/15 05:29:57;;;;;;;17.47;15.57;;;13.90;99.90;14.10;96827.00;;;;5085721;28;20209;-69
2021/09/15 05:32:45;;;;;;;17.33;15.47;;;14.00;99.90;14.10;96817.00;;;;5096311;28;20237;-73
2021/09/15 05:35:36;;;;;;;18.30;15.93;;;14.00;99.90;14.20;96822.00;;;;5087698;28;20211;-71
2021/09/15 05:38:25;;;;;;;14.00;12.70;;;14.10;99.90;13.90;96819.00;;;;5092606;28;20222;-71
2021/09/15 05:41:13;;;;;;;16.13;14.43;;;14.20;99.90;14.00;96817.00;;;;5070329;28;20224;-70
2021/09/15 05:44:02;;;;;;;17.73;14.87;;;14.20;99.90;14.30;96824.00;;;;5065543;28;20585;-72
2021/09/15 05:46:51;;;;;;;16.60;14.87;;;14.20;99.90;14.20;96825.00;;;;5064967;28;20227;-73
2021/09/15 05:49:40;;;;;;;16.03;14.43;;;14.30;99.90;14.40;96838.00;;;;5067415;28;20584;-71
2021/09/15 05:52:30;;;;;;;16.53;14.80;;;14.40;99.90;14.40;96833.00;;;;5062499;28;20252;-70
2021/09/15 05:55:19;;;;;;;15.80;14.20;;;14.50;99.90;14.50;96842.00;;;;5070274;28;20200;-73
2021/09/15 05:58:09;;;;;;;16.20;14.60;;;14.50;99.90;14.40;96834.00;;;;5069962;28;20210;-70
2021/09/15 06:00:58;;;;;;;16.73;13.70;;;14.50;99.90;14.60;96832.00;;;;5066006;28;20211;-73
2021/09/15 06:03:47;;;;;;;13.83;12.43;;;14.60;99.90;14.80;96826.00;;;;5065481;28;20707;-72
2021/09/15 06:06:35;;;;;;;15.70;13.77;;;14.70;99.90;14.90;96830.00;;;;5067719;28;20200;-72
2021/09/15 06:09:26;;;;;;;15.57;13.97;;;14.80;99.90;15.00;96833.00;;;;5069590;28;20208;-70
2021/09/15 06:12:15;;;;;;;16.20;14.30;;;14.90;99.90;15.00;96827.00;;;;5063883;28;20224;-72
2021/09/15 06:15:04;;;;;;;16.17;14.47;;;15.10;99.90;15.00;96826.00;;;;5071012;28;20199;-71
2021/09/15 06:17:53;;;;;;;15.73;14.07;;;15.10;99.90;15.00;96833.00;;;;5069340;28;20730;-69
2021/09/15 06:20:42;;;;;;;16.00;14.40;;;15.20;99.90;15.30;96832.00;;;;5069503;28;20206;-69
2021/09/15 06:23:32;;;;;;;15.53;13.73;;;15.20;99.90;15.50;96836.00;;;;5066934;28;20210;-71
2021/09/15 06:26:24;;;;;;;16.60;14.33;;;15.40;99.90;15.70;96825.00;;;;5069059;28;20308;-71
2021/09/15 06:29:13;;;;;;;13.93;12.53;;;15.50;99.90;15.60;96820.00;;;;5064885;28;20196;-71
2021/09/15 06:32:02;;;;;;;15.17;13.67;;;15.60;99.90;15.90;96823.00;;;;5066219;28;20594;-70
2021/09/15 06:34:51;;;;;;;17.93;13.33;;;15.70;99.90;16.10;96824.00;;;;5067591;28;20203;-69
2021/09/15 06:37:41;;;;;;;18.13;14.10;;;15.90;99.90;16.20;96825.00;;;;5065801;28;20692;-72
2021/09/15 06:40:30;;;;;;;17.00;14.97;;;16.00;99.90;16.20;96819.00;;;;5068819;28;20207;-71
2021/09/15 06:43:20;;;;;;;17.07;14.60;;;16.10;99.90;16.20;96818.00;;;;5066752;28;20200;-72
2021/09/15 06:46:09;;;;;;;15.40;12.93;;;16.20;99.90;16.60;96815.00;;;;5066568;28;20211;-70
2021/09/15 06:48:58;;;;;;;18.67;14.17;;;16.30;99.90;16.90;96802.00;;;;5065955;28;20221;-69
2021/09/15 06:51:47;;;;;;;15.83;14.23;;;16.50;99.90;17.10;96808.00;;;;5065321;28;20616;-70
2021/09/15 06:54:35;;;;;;;16.27;14.60;;;16.70;99.90;17.10;96806.00;;;;5066374;28;20204;-71
2021/09/15 06:57:24;;;;;;;15.27;13.70;;;16.90;99.90;17.30;96793.00;;;;5075971;28;20682;-71
2021/09/15 07:00:18;;;;;;;16.73;14.37;;;17.00;99.90;17.50;96806.00;;;;5077628;28;20396;-71
2021/09/15 07:03:07;;;;;;;16.80;15.00;;;17.20;99.90;17.70;96802.00;;;;5066192;28;20216;-71
2021/09/15 07:05:56;;;;;;;17.50;14.33;;;17.40;99.90;18.10;96798.00;;;;5073488;28;20212;-73
2021/09/15 07:08:45;;;;;;;14.83;12.63;;;17.60;99.90;18.40;96795.00;;;;5065731;28;20573;-70
2021/09/15 07:11:34;;;;;;;15.50;13.67;;;17.80;99.90;18.70;96797.00;;;;5070475;28;20226;-72
2021/09/15 07:14:22;;;;;;;15.93;13.70;;;18.00;99.90;19.10;96793.00;;;;5074838;28;20210;-72
2021/09/15 07:17:13;;;;;;;19.37;13.97;;;18.20;99.90;19.30;96790.00;;;;5066775;28;20211;-73
2021/09/15 07:20:02;;;;;;;13.67;12.23;;;18.60;99.90;19.60;96792.00;;;;5065438;28;20199;-71
2021/09/15 07:22:51;;;;;;;14.27;12.37;;;18.80;99.90;19.90;96787.00;;;;5066467;28;20219;-70
2021/09/15 07:25:40;;;;;;;14.07;12.63;;;18.80;99.90;20.00;96791.00;;;;5068382;28;20200;-71
2021/09/15 07:28:28;;;;;;;12.53;11.17;;;19.30;99.90;20.30;96789.00;;;;5066756;28;20643;-70
2021/09/15 07:31:17;;;;;;;12.50;11.20;;;19.50;99.90;20.30;96794.00;;;;5065841;28;20729;-68
2021/09/15 07:34:08;;;;;;;11.93;10.73;;;19.70;99.90;20.60;96801.00;;;;5071265;28;20213;-72
2021/09/15 07:36:56;;;;;;;12.30;11.10;;;19.90;99.90;20.70;96802.00;;;;5062452;28;20222;-72
2021/09/15 07:39:45;;;;;;;12.40;11.30;;;20.50;99.90;20.90;96805.00;;;;5071204;28;20215;-69
2021/09/15 07:42:34;;;;;;;12.47;11.27;;;20.20;99.90;21.10;96809.00;;;;5066496;28;20226;-73
2021/09/15 07:45:23;;;;;;;13.53;11.50;;;20.40;99.90;21.20;96811.00;;;;5065608;28;20212;-71
2021/09/15 07:48:12;;;;;;;11.27;10.07;;;20.60;99.90;21.30;96808.00;;;;5070584;28;20222;-71
2021/09/15 07:51:03;;;;;;;12.70;11.27;;;20.70;99.90;21.50;96799.00;;;;5063872;28;20684;-72
2021/09/15 07:53:52;;;;;;;11.57;10.47;;;20.80;99.90;21.70;96806.00;;;;5066187;28;20200;-69
2021/09/15 07:56:41;;;;;;;12.07;10.97;;;21.00;99.90;21.80;96813.00;;;;5069284;28;20200;-72
2021/09/15 07:59:29;;;;;;;11.37;10.17;;;21.10;99.90;21.80;96816.00;;;;5066543;28;20195;-71
2021/09/15 08:02:18;;;;;;;12.03;10.83;;;21.20;99.90;21.80;96814.00;;;;5067157;28;20220;-70
2021/09/15 08:05:08;;;;;;;11.47;10.40;;;21.30;99.90;21.90;96814.00;;;;5069345;28;20195;-71
2021/09/15 08:08:01;;;;;;;11.23;10.03;;;21.40;99.90;22.10;96807.00;;;;5069574;28;20195;-70
2021/09/15 08:10:50;;;;;;;13.93;11.43;;;21.50;99.90;22.10;96806.00;;;;5066182;28;20196;-70
2021/09/15 08:13:38;;;;;;;12.23;11.03;;;21.60;99.90;22.30;96806.00;;;;5067940;28;20200;-69
2021/09/15 08:16:28;;;;;;;11.93;10.03;;;21.70;99.90;22.50;96806.00;;;;5067962;28;20230;-71
2021/09/15 08:19:16;;;;;;;13.70;9.30;;;21.80;99.90;22.70;96810.00;;;;5070709;28;20211;-72
2021/09/15 08:22:05;;;;;;;11.80;10.60;;;22.00;99.90;22.80;96802.00;;;;5069928;28;20712;-72
2021/09/15 08:24:56;;;;;;;11.90;10.80;;;22.10;99.90;22.60;96805.00;;;;5067905;28;20218;-71
2021/09/15 08:27:46;;;;;;;12.00;10.57;;;22.20;99.90;22.60;96809.00;;;;5064992;28;20207;-69
2021/09/15 08:30:35;;;;;;;12.20;11.00;;;22.20;99.90;22.70;96800.00;;;;5062314;28;20208;-69
2021/09/15 08:33:23;;;;;;;10.80;9.80;;;22.20;99.90;22.80;96794.00;;;;5064180;28;20247;-68
2021/09/15 08:36:16;;;;;;;11.70;10.63;;;22.30;99.90;23.10;96792.00;;;;5064227;28;20207;-71
2021/09/15 08:39:05;;;;;;;11.33;10.13;;;22.40;99.90;22.90;96787.00;;;;5065402;28;20200;-70
2021/09/15 08:41:55;;;;;;;13.43;10.97;;;22.50;99.90;23.30;96783.00;;;;5065351;28;20219;-69
2021/09/15 08:44:44;;;;;;;15.27;10.83;;;22.60;99.90;23.30;96789.00;;;;5065578;28;20257;-72
2021/09/15 08:47:37;;;;;;;11.20;10.10;;;22.70;99.90;23.30;96796.00;;;;5064575;28;20211;-69
2021/09/15 08:50:26;;;;;;;11.27;10.17;;;22.80;99.90;23.50;96784.00;;;;5067583;28;20195;-69
2021/09/15 08:53:14;;;;;;;10.57;9.23;;;22.90;99.90;23.80;96786.00;;;;5064171;28;20250;-72
2021/09/15 08:56:03;;;;;;;12.50;11.07;;;23.00;99.90;24.00;96783.00;;;;5064976;28;20199;-70
2021/09/15 08:58:54;;;;;;;10.60;9.70;;;23.20;99.90;24.20;96778.00;;;;5060578;28;20230;-68
2021/09/15 09:01:45;;;;;;;10.13;9.13;;;23.40;99.90;24.10;96775.00;;;;5059913;28;20221;-71
2021/09/15 09:04:54;;;;;;;10.47;9.37;;;23.50;99.90;24.40;96777.00;;;;5059495;28;20199;-68
2021/09/15 09:07:43;;;;;;;11.50;9.50;;;23.60;99.90;24.50;96783.00;;;;5061778;28;20207;-70
2021/09/15 09:10:34;;;;;;;10.77;9.73;;;23.80;99.90;24.70;96778.00;;;;5068014;28;20649;-69
2021/09/15 09:13:23;;;;;;;11.30;10.07;;;24.00;99.90;24.80;96773.00;;;;5067443;28;20695;-68
2021/09/15 09:16:13;;;;;;;11.37;10.20;;;24.10;99.90;24.90;96767.00;;;;5065808;28;20773;-69
2021/09/15 09:19:04;;;;;;;9.70;8.70;;;24.30;99.90;25.20;96771.00;;;;5064016;28;20204;-71
2021/09/15 09:21:54;;;;;;;14.70;10.37;;;24.40;99.90;25.30;96772.00;;;;5064298;28;20705;-70
2021/09/15 09:24:52;;;;;;;13.17;10.00;;;24.60;99.90;25.50;96770.00;;;;5064193;28;20204;-68
2021/09/15 09:27:41;;;;;;;10.23;9.33;;;24.70;99.90;25.70;96768.00;;;;5065245;28;20208;-69
2021/09/15 09:30:36;;;;;;;9.93;8.97;;;24.90;99.90;25.80;96764.00;;;;5066739;28;20216;-71
2021/09/15 09:33:26;;;;;;;10.53;9.43;;;25.00;99.90;26.10;96758.00;;;;5067121;28;20233;-70
2021/09/15 09:36:15;;;;;;;9.80;8.80;;;25.20;99.90;26.10;96758.00;;;;5067201;28;20211;-69
2021/09/15 09:39:12;;;;;;;10.17;8.23;;;25.30;99.90;26.40;96757.00;;;;5066697;28;20200;-70
2021/09/15 09:42:01;;;;;;;9.30;8.40;;;25.50;99.90;26.50;96751.00;;;;5073088;28;20732;-68
2021/09/15 09:44:50;;;;;;;9.50;8.60;;;25.70;99.90;26.60;96744.00;;;;5072850;28;20225;-69
2021/09/15 09:47:40;;;;;;;10.67;9.60;;;25.80;99.90;26.70;96742.00;;;;5069236;28;20209;-68
2021/09/15 09:50:33;;;;;;;11.50;10.40;;;25.90;99.90;27.00;96743.00;;;;5072782;28;20209;-69
2021/09/15 09:53:22;;;;;;;9.40;8.50;;;26.10;99.90;27.10;96739.00;;;;5066295;28;20227;-68
2021/09/15 09:56:11;;;;;;;10.37;8.80;;;26.20;99.90;27.50;96733.00;;;;5069238;28;20231;-69
2021/09/15 09:59:01;;;;;;;10.33;8.43;;;26.40;99.90;27.80;96723.00;;;;5067191;28;20219;-68
2021/09/15 10:01:54;;;;;;;10.03;9.03;;;26.60;99.90;27.90;96727.00;;;;5066283;28;20335;-70
2021/09/15 10:04:44;;;;;;;9.47;8.57;;;26.80;99.90;28.20;96721.00;;;;5068044;28;20209;-69
2021/09/15 10:07:37;;;;;;;8.93;8.20;;;27.00;99.90;28.20;96717.00;;;;5068471;28;20209;-69
2021/09/15 10:10:26;;;;;;;10.17;8.83;;;27.20;99.00;28.50;96720.00;;;;5069659;28;20240;-70
2021/09/15 10:13:16;;;;;;;9.67;8.17;;;27.40;98.90;28.60;96714.00;;;;5068494;28;20284;-72
2021/09/15 10:16:08;;;;;;;9.67;8.67;;;27.60;97.20;29.00;96720.00;;;;5065901;28;20494;-68
2021/09/15 10:19:01;;;;;;;9.87;8.97;;;27.80;97.40;28.90;96715.00;;;;5070516;28;20224;-72
2021/09/15 10:21:59;;;;;;;9.20;7.00;;;28.00;96.00;28.40;96704.00;;;;5070198;28;20233;-68
2021/09/15 10:24:55;;;;;;;12.27;7.77;;;28.10;92.60;27.70;96703.00;;;;5067205;28;20206;-69
2021/09/15 10:28:02;;;;;;;8.70;7.90;;;27.90;92.10;27.70;96690.00;;;;5069281;28;20670;-71
2021/09/15 10:30:55;;;;;;;10.00;8.67;;;27.70;91.00;28.40;96698.00;;;;5067262;28;20215;-68
2021/09/15 10:33:47;;;;;;;7.73;7.03;;;27.70;90.90;28.90;96687.00;;;;5068625;28;20228;-71
2021/09/15 10:36:40;;;;;;;10.63;8.90;;;27.90;90.80;29.70;96686.00;;;;5066882;28;20211;-69
2021/09/15 10:39:29;;;;;;;9.27;8.30;;;28.20;90.90;30.10;96681.00;;;;5075118;28;20197;-71
2021/09/15 10:42:47;;;;;;;9.40;8.37;;;28.50;90.40;29.70;96670.00;;;;5071977;28;20240;-69
2021/09/15 10:45:36;;;;;;;8.98;7.32;;;28.90;86.40;30.60;96670.00;;;;5071773;28;20210;-73
2021/09/15 10:48:25;;;;;;;14.18;8.43;;;29.20;85.30;30.00;96662.00;;;;5072417;28;20210;-69
2021/09/15 10:51:20;;;;;;;10.70;8.10;;;29.50;84.10;30.40;96669.00;;;;5070167;28;20302;-71
2021/09/15 10:54:43;;;;;;;12.43;9.02;;;29.60;80.10;30.60;96658.00;;;;5064511;28;20224;-68
2021/09/15 10:57:36;;;;;;;8.43;7.50;;;29.80;79.80;30.40;96660.00;;;;5069961;28;20206;-70
2021/09/15 11:00:30;;;;;;;11.02;7.90;;;30.00;77.90;30.20;96644.00;;;;5060830;28;20689;-71
2021/09/15 11:03:32;;;;;;;8.30;7.50;;;30.10;75.60;30.60;96681.00;;;;5067749;28;20504;-68
2021/09/15 11:06:23;;;;;;;9.25;7.20;;;30.00;76.30;30.50;96682.00;;;;5065799;28;20214;-68
2021/09/15 11:09:16;;;;;;;9.18;8.25;;;30.00;75.00;30.30;96659.00;;;;5069218;28;20593;-67
2021/09/15 11:12:06;;;;;;;9.43;7.30;;;30.00;73.50;31.10;96656.00;;;;5064389;28;20605;-67
2021/09/15 11:14:58;;;;;;;11.43;8.10;;;30.10;74.50;31.30;96650.00;;;;5064332;28;20215;-67
2021/09/15 11:17:49;;;;;;;8.38;7.40;;;30.40;74.60;31.70;96658.00;;;;5068504;28;20609;-72
2021/09/15 11:20:38;;;;;;;8.63;7.82;;;30.60;72.40;31.00;96637.00;;;;5064903;28;20593;-71
2021/09/15 11:23:29;;;;;;;9.90;8.82;;;30.70;71.60;31.50;96627.00;;;;5069292;28;20675;-68
2021/09/15 11:26:36;;;;;;;9.45;8.50;;;30.70;71.70;31.90;96650.00;;;;5064347;28;20226;-71
2021/09/15 11:29:41;;;;;;;11.70;8.35;;;30.80;71.80;31.80;96656.00;;;;5071960;28;20204;-68
2021/09/15 11:32:30;;;;;;;9.05;8.13;;;31.00;72.50;31.40;96656.00;;;;5069967;28;20231;-67
2021/09/15 11:35:21;;;;;;;11.60;8.13;;;30.90;71.70;30.80;96631.00;;;;5062182;28;20200;-72
2021/09/15 11:38:10;;;;;;;9.73;8.77;;;30.80;71.50;32.10;96599.00;;;;5071582;28;20224;-68
2021/09/15 11:41:06;;;;;;;10.75;8.55;;;31.00;71.70;33.70;96602.00;;;;5068902;28;20206;-68
2021/09/15 11:43:55;;;;;;;8.52;7.68;;;31.60;72.60;32.10;96612.00;;;;5072082;28;20510;-69
2021/09/15 11:46:44;;;;;;;9.07;8.20;;;32.00;66.90;33.10;96611.00;;;;5072241;28;20212;-70
2021/09/15 11:49:34;;;;;;;12.52;8.02;;;32.20;66.60;32.30;96611.00;;;;5068776;28;20204;-71
2021/09/15 11:52:25;;;;;;;9.90;8.95;;;32.30;66.10;32.00;96612.00;;;;5077306;28;20243;-68
2021/09/15 11:55:15;;;;;;;16.75;8.57;;;32.30;63.50;31.30;96647.00;;;;5069261;28;20532;-68
2021/09/15 11:58:05;;;;;;;10.90;9.13;;;32.10;64.20;31.20;96639.00;;;;5066546;28;20207;-70
2021/09/15 12:00:57;;;;;;;8.60;7.68;;;31.60;62.70;31.10;96628.00;;;;5062845;28;20223;-68
2021/09/15 12:03:48;;;;;;;10.20;8.02;;;31.20;64.30;32.10;96623.00;;;;5061799;28;20450;-70
2021/09/15 12:06:38;;;;;;;11.38;8.18;;;31.20;65.80;29.80;96597.00;;;;5071339;28;20207;-67
2021/09/15 12:09:30;;;;;;;9.20;7.70;;;30.90;63.50;30.80;96625.00;;;;5064843;28;20207;-70
2021/09/15 12:12:19;;;;;;;10.13;8.45;;;30.90;64.90;30.70;96624.00;;;;5067654;28;20215;-68
2021/09/15 12:15:10;;;;;;;8.70;7.82;;;30.80;65.10;31.50;96609.00;;;;5064813;28;20690;-69
2021/09/15 12:18:00;;;;;;;9.75;8.63;;;30.90;65.40;33.30;96581.00;;;;5064166;28;20204;-72
2021/09/15 12:20:51;;;;;;;9.10;7.70;;;31.40;66.20;34.10;96596.00;;;;5066296;28;20199;-68
2021/09/15 12:23:40;;;;;;;8.93;7.68;;;32.00;63.90;33.90;96622.00;;;;5065552;28;20191;-67
2021/09/15 12:26:31;;;;;;;8.93;8.02;;;32.40;64.20;33.40;96625.00;;;;5066100;28;20206;-70
2021/09/15 12:29:22;;;;;;;8.68;7.40;;;32.40;62.20;34.10;96571.00;;;;5065438;28;20459;-69
2021/09/15 12:32:11;;;;;;;9.60;7.40;;;32.70;62.00;33.70;96605.00;;;;5067190;28;20221;-67